createdAt,value
2018-10-07T00:00:40.482Z,15.40
2018-10-07T00:06:09.796Z,15.30
2018-10-07T00:11:39.164Z,15.20
2018-10-07T00:17:08.513Z,15.10
2018-10-07T00:22:37.881Z,15.10
2018-10-07T00:28:07.388Z,15.10
2018-10-07T00:33:37.770Z,15.00
2018-10-07T00:39:09.872Z,14.90
2018-10-07T00:44:39.244Z,14.90
2018-10-07T00:50:08.677Z,14.80
2018-10-07T00:55:37.997Z,14.80
2018-10-07T01:01:07.525Z,14.80
2018-10-07T01:06:38.890Z,14.70
2018-10-07T01:12:08.280Z,14.70
2018-10-07T01:17:37.585Z,14.70
2018-10-07T01:23:07.320Z,14.60
2018-10-07T01:28:37.716Z,14.60
2018-10-07T01:34:07.120Z,14.60
2018-10-07T01:39:36.519Z,14.60
2018-10-07T01:45:06.558Z,14.50
2018-10-07T01:50:35.918Z,14.50
2018-10-07T01:56:05.652Z,14.50
2018-10-07T02:01:36.008Z,14.50
2018-10-07T02:07:05.271Z,14.40
2018-10-07T02:12:34.594Z,14.40
2018-10-07T02:18:03.836Z,14.40
2018-10-07T02:23:33.069Z,14.30
2018-10-07T02:29:02.340Z,14.30
2018-10-07T02:34:31.580Z,14.30
2018-10-07T02:40:00.819Z,14.20
2018-10-07T02:45:30.116Z,14.20
2018-10-07T02:50:59.378Z,14.20
2018-10-07T02:56:28.701Z,14.20
2018-10-07T03:01:57.968Z,14.20
2018-10-07T03:07:27.236Z,14.20
2018-10-07T03:12:56.521Z,14.10
2018-10-07T03:18:25.804Z,14.10
2018-10-07T03:23:55.093Z,14.10
2018-10-07T03:29:24.391Z,14.10
2018-10-07T03:34:53.612Z,14.00
2018-10-07T03:40:22.812Z,14.00
2018-10-07T03:45:52.063Z,14.00
2018-10-07T03:51:21.455Z,14.00
2018-10-07T03:56:50.742Z,13.90
2018-10-07T04:02:20.136Z,13.90
2018-10-07T04:07:49.345Z,13.90
2018-10-07T04:13:18.733Z,13.90
2018-10-07T04:18:47.985Z,13.90
2018-10-07T04:24:17.204Z,13.90
2018-10-07T04:29:46.458Z,13.90
2018-10-07T04:35:15.709Z,13.90
2018-10-07T04:40:44.924Z,13.90
2018-10-07T04:46:14.229Z,13.90
2018-10-07T04:51:43.407Z,13.90
2018-10-07T04:57:12.776Z,13.80
2018-10-07T05:02:42.001Z,13.80
2018-10-07T05:08:11.335Z,13.80
2018-10-07T05:13:46.592Z,13.80
2018-10-07T05:19:15.837Z,13.80
2018-10-07T05:24:45.140Z,13.80
2018-10-07T05:30:14.412Z,13.80
2018-10-07T05:35:43.796Z,13.80
2018-10-07T05:41:16.280Z,13.80
2018-10-07T05:46:45.554Z,13.80
2018-10-07T05:52:14.780Z,13.80
2018-10-07T05:57:44.100Z,13.80
2018-10-07T06:03:32.276Z,13.80
2018-10-07T06:09:02.264Z,13.80
2018-10-07T06:14:48.555Z,13.80
2018-10-07T06:20:18.829Z,13.90
2018-10-07T06:25:48.128Z,13.90
2018-10-07T06:31:17.332Z,14.00
2018-10-07T06:36:47.156Z,14.00
2018-10-07T06:42:16.648Z,14.10
2018-10-07T06:47:46.044Z,14.20
2018-10-07T06:53:15.496Z,14.30
2018-10-07T06:58:44.744Z,14.40
2018-10-07T07:04:14.111Z,14.50
2018-10-07T07:09:43.409Z,14.50
2018-10-07T07:15:14.391Z,14.60
2018-10-07T07:20:52.039Z,14.70
2018-10-07T07:26:21.510Z,14.80
2018-10-07T07:31:50.828Z,14.90
2018-10-07T07:49:05.410Z,15.10
2018-10-07T07:54:35.568Z,15.30
2018-10-07T08:00:05.372Z,15.40
2018-10-07T08:05:34.656Z,15.50
2018-10-07T08:11:04.140Z,15.70
2018-10-07T08:16:34.563Z,15.80
2018-10-07T08:22:03.866Z,16.00
2018-10-07T08:27:39.022Z,16.10
2018-10-07T08:33:08.387Z,16.30
2018-10-07T08:38:41.517Z,16.50
2018-10-07T08:44:10.840Z,16.70
2018-10-07T08:49:42.249Z,16.90
2018-10-07T08:55:11.756Z,17.10
2018-10-07T09:00:43.208Z,17.30
2018-10-07T09:06:12.645Z,17.40
2018-10-07T09:11:42.295Z,17.60
2018-10-07T09:17:12.797Z,17.80
2018-10-07T09:22:43.284Z,18.00
2018-10-07T09:28:12.521Z,18.20
2018-10-07T09:33:42.822Z,18.40
2018-10-07T09:39:12.902Z,18.60
2018-10-07T09:44:42.211Z,18.70
2018-10-07T09:50:11.598Z,18.70
2018-10-07T09:55:40.891Z,18.70
2018-10-07T10:01:15.029Z,18.60
2018-10-07T10:06:45.323Z,18.60
2018-10-07T10:12:15.753Z,18.60
2018-10-07T10:17:50.305Z,18.50
2018-10-07T10:25:44.199Z,18.60
2018-10-07T10:31:28.621Z,18.60
2018-10-07T10:37:03.489Z,18.60
2018-10-07T10:44:46.681Z,18.60
2018-10-07T10:50:58.159Z,18.50
2018-10-07T10:56:39.688Z,18.60
2018-10-07T11:02:21.162Z,18.70
2018-10-07T11:08:06.279Z,18.60
2018-10-07T11:13:47.289Z,18.80
2018-10-07T11:19:34.700Z,19.00
2018-10-07T11:25:39.502Z,19.10
2018-10-07T11:31:27.911Z,19.20
2018-10-07T11:37:12.533Z,19.30
2018-10-07T11:42:48.741Z,19.30
2018-10-07T11:48:46.919Z,19.40
2018-10-07T11:54:36.045Z,19.40
2018-10-07T12:00:05.684Z,19.40
2018-10-07T12:05:36.323Z,19.40
2018-10-07T12:11:05.614Z,19.40
2018-10-07T12:16:39.113Z,19.50
2018-10-07T12:22:08.926Z,19.50
2018-10-07T12:27:38.206Z,19.50
2018-10-07T12:33:09.780Z,19.50
2018-10-07T12:38:50.988Z,19.50
2018-10-07T12:44:20.435Z,19.50
2018-10-07T12:49:52.728Z,19.40
2018-10-07T12:55:22.173Z,19.40
2018-10-07T13:00:51.588Z,19.40
2018-10-07T13:06:21.060Z,19.40
2018-10-07T13:11:50.289Z,19.50
2018-10-07T13:17:21.621Z,19.50
2018-10-07T13:22:50.909Z,19.40
2018-10-07T13:29:21.591Z,19.40
2018-10-07T13:34:50.991Z,19.40
2018-10-07T13:40:20.680Z,19.40
2018-10-07T13:45:50.157Z,19.30
2018-10-07T13:51:19.558Z,19.30
2018-10-07T13:56:48.853Z,19.30
2018-10-07T14:02:18.221Z,19.20
2018-10-07T14:07:47.620Z,19.20
2018-10-07T14:13:17.167Z,19.20
2018-10-07T14:18:46.672Z,19.10
2018-10-07T14:24:16.213Z,19.00
2018-10-07T14:29:47.580Z,18.80
2018-10-07T14:35:17.336Z,18.70
2018-10-07T14:40:48.549Z,18.60
2018-10-07T14:46:18.438Z,18.50
2018-10-07T14:51:47.812Z,18.40
2018-10-07T14:57:17.177Z,18.30
2018-10-07T15:02:49.062Z,18.20
2018-10-07T15:08:19.056Z,18.10
2018-10-07T15:13:48.413Z,18.10
2018-10-07T15:19:17.905Z,18.00
2018-10-07T15:24:48.245Z,17.90
2018-10-07T15:30:17.693Z,17.80
2018-10-07T15:35:47.484Z,17.80
2018-10-07T15:41:19.193Z,17.80
2018-10-07T15:46:48.508Z,17.70
2018-10-07T15:52:17.953Z,17.60
2018-10-07T15:57:52.236Z,17.50
2018-10-07T16:03:21.710Z,17.50
2018-10-07T16:08:52.304Z,17.40
2018-10-07T16:14:21.779Z,17.30
2018-10-07T16:19:51.306Z,17.20
2018-10-07T16:25:21.758Z,17.20
2018-10-07T16:36:36.469Z,17.00
2018-10-07T16:42:06.141Z,16.90
2018-10-07T16:47:35.657Z,16.80
2018-10-07T16:53:04.986Z,16.70
2018-10-07T16:58:34.236Z,16.60
2018-10-07T17:04:03.686Z,16.50
2018-10-07T17:09:33.096Z,16.50
2018-10-07T17:15:02.665Z,16.40
2018-10-07T17:20:32.400Z,16.30
2018-10-07T17:26:02.850Z,16.20
2018-10-07T17:31:32.278Z,16.10
2018-10-07T17:37:01.763Z,16.00
2018-10-07T17:42:32.082Z,15.90
2018-10-07T17:48:02.627Z,15.80
2018-10-07T17:53:31.977Z,15.70
2018-10-07T17:59:03.374Z,15.60
2018-10-07T18:04:33.250Z,15.40
2018-10-07T18:10:02.782Z,15.30
2018-10-07T18:15:32.846Z,15.20
2018-10-07T18:21:02.553Z,15.10
2018-10-07T18:26:36.478Z,14.90
2018-10-07T18:32:10.840Z,14.80
2018-10-07T18:37:59.051Z,14.70
2018-10-07T18:43:31.772Z,14.60
2018-10-07T18:49:05.179Z,14.50
2018-10-07T18:54:38.572Z,14.30
2018-10-07T19:00:12.089Z,14.20
2018-10-07T19:05:42.668Z,14.20
2018-10-07T19:11:13.397Z,14.10
2018-10-07T19:16:51.099Z,14.00
2018-10-07T19:22:21.335Z,13.90
2018-10-07T19:27:51.394Z,13.90
2018-10-07T19:33:21.974Z,13.80
2018-10-07T19:38:52.130Z,13.80
2018-10-07T19:44:21.618Z,13.70
2018-10-07T19:50:03.100Z,13.60
2018-10-07T19:55:33.655Z,13.50
2018-10-07T20:01:15.533Z,13.40
2018-10-07T20:06:47.069Z,13.30
2018-10-07T20:12:17.013Z,13.20
2018-10-07T20:17:49.254Z,13.20
2018-10-07T20:23:27.063Z,13.10
2018-10-07T20:28:58.927Z,13.10
2018-10-07T20:34:28.374Z,13.00
2018-10-07T20:40:01.576Z,12.90
2018-10-07T20:45:33.126Z,12.80
2018-10-07T20:51:03.890Z,12.80
2018-10-07T20:56:33.410Z,12.70
2018-10-07T21:02:05.831Z,12.60
2018-10-07T21:07:36.785Z,12.50
2018-10-07T21:13:06.805Z,12.50
2018-10-07T21:18:37.559Z,12.40
2018-10-07T21:24:08.255Z,12.40
2018-10-07T21:29:44.572Z,12.30
2018-10-07T21:35:15.789Z,12.20
2018-10-07T21:40:45.216Z,12.10
2018-10-07T21:46:16.659Z,12.10
2018-10-07T21:51:47.330Z,12.00
2018-10-07T21:57:16.680Z,12.00
2018-10-07T22:02:47.044Z,11.90
2018-10-07T22:08:17.391Z,11.80
2018-10-07T22:13:46.760Z,11.80
2018-10-07T22:19:16.129Z,11.70
2018-10-07T22:24:45.453Z,11.70
2018-10-07T22:30:17.805Z,11.60
2018-10-07T22:35:47.128Z,11.50
2018-10-07T22:41:16.636Z,11.50
2018-10-07T22:46:46.940Z,11.40
2018-10-07T22:52:16.206Z,11.30
2018-10-07T22:57:45.524Z,11.30
2018-10-07T23:03:14.840Z,11.30
2018-10-07T23:08:50.524Z,11.20
2018-10-07T23:14:19.991Z,11.20
2018-10-07T23:19:49.240Z,11.10
2018-10-07T23:25:18.569Z,11.10
2018-10-07T23:30:47.924Z,11.10
2018-10-07T23:36:17.228Z,11.10
2018-10-07T23:41:47.732Z,11.10
2018-10-07T23:47:17.043Z,11.00
2018-10-07T23:52:47.512Z,11.00
2018-10-07T23:58:16.770Z,11.00
